Airfield :
LOGIN :

Register | Disclaimer

   EN    FR    IT 

 










Legend :    VFR   Marginal VFR   IFR   Intensive IFR   Very Intensive IFR
Visi :
Ceiling :
>= 8 km
>= 3000ft
5 to 8 km
1000 to 3000 ft
1500m to 5 km
500 to 1000 ft
800 to 1500m
200 to 500 ft
< 800m
< 200 ft
Symbols :   Thunderstorms  Fog  Heavy snow  Heavy precipitations  Wind > 20 kt
SIGMETs :     Misc.  Thunderstorms  Icing  Turbulence  Mountain Waves  Volcanic Ashes






- Airport Elevation : 1416 ft
- IATA code : ZRH


LSZH - Zurich

CURRENT METAR :
  • 301620Z VRB01KT 9999 FEW050CB 27/16 Q1011 TEMPO TSRA

EXPIRED METARs :
  • 301550Z VRB03KT 9999 FEW050CB 28/15 Q1011 TEMPO TS
  • 301520Z 16005KT 110V220 9999 FEW050CB 29/15 Q1010 TEMPO TS
  • 301450Z 18005KT 130V220 9999 FEW050CB 28/16 Q1011 NOSIG
  • 301420Z 15005KT 090V200 9999 FEW050 28/16 Q1011 NOSIG
  • 301350Z VRB05KT 9999 FEW050 28/17 Q1012 NOSIG
  • 301320Z 18009KT 9999 FEW050TCU 26/18 Q1012 NOSIG

TAF TAF LSZH
Valid from the 30 at 15:00 until the 01 at 21:00 UTC


301425Z 3015/0121 15005KT 9999 FEW050TCU TX28/3015Z TN13/0106Z TX19/0115Z
TEMPO 3018/3021 25015G25KT TSRA FEW040CB
PROB40
TEMPO 3018/3020 27015G35KT 4000 TSRA SCT040CB
TEMPO 3021/0108 27010KT SHRA SCT030TCU
PROB30 0101/0105 TSRA SCT030CB
BECMG 0117/0120 CAVOK
ATIS : +41 43 816 2295 (DEP) +41 43 816 2294 (ARR)



MET'MAP, your aeronautical weather chart ! - Copyright ORBIFLY December 2007 - Disclaimer

ORBIFLY MET'MAP TEAM :

Programming & Development : Alexandra Zaïnal
Original concept : Baudouin d'Aumeries
Technical & hardware support : Manuel Goepfert
Assistance : Marc-Olivier Méhu




SOURCES & CREDITS :

   NOAA